CCA112 VHHH-ZBAA
Flight info
| Callsign | CCA112 |
|---|---|
| Flight time | N/A |
| Altitude | 40100 |
| Route | BEKOL A461 BUBDA W56 DUGEB |
| Aircraft | A359/H-SDE2E3GHIJ3J4J5LM1ORWXY/LB1D1 |
Departure
| Time | 2026-05-05 08:39 |
|---|---|
| Airport | Hong Kong International Airport (VHHH) |
Arrival
| Time | N/A |
|---|---|
| Airport | Beijing Capital International Airport (ZBAA) |
| Time | Latitude | Longitude | Altitude | Speed | Heading |
|---|---|---|---|---|---|
| 2026-05-05 08:22 | 22.30078 | 113.90016 | 43 ft | 0 kts | 161° |
| 2026-05-05 08:27 | 22.30080 | 113.90015 | 43 ft | 2 kts | 161° |
| 2026-05-05 08:28 | 22.30097 | 113.90009 | 43 ft | 3 kts | 161° |
| 2026-05-05 08:28 | 22.30121 | 113.90000 | 42 ft | 4 kts | 161° |
| 2026-05-05 08:28 | 22.30145 | 113.89993 | 40 ft | 4 kts | 187° |
| 2026-05-05 08:28 | 22.30164 | 113.90006 | 39 ft | 0 kts | 251° |
| 2026-05-05 08:33 | 22.30164 | 113.90005 | 40 ft | 0 kts | 251° |
| 2026-05-05 08:34 | 22.30163 | 113.90003 | 40 ft | 2 kts | 251° |
| 2026-05-05 08:34 | 22.30158 | 113.89987 | 41 ft | 5 kts | 251° |
| 2026-05-05 08:34 | 22.30133 | 113.89938 | 43 ft | 9 kts | 226° |
| 2026-05-05 08:35 | 22.30079 | 113.89929 | 43 ft | 7 kts | 160° |
| 2026-05-05 08:35 | 22.30018 | 113.89948 | 43 ft | 12 kts | 164° |
| 2026-05-05 08:35 | 22.29924 | 113.89984 | 43 ft | 16 kts | 161° |
| 2026-05-05 08:35 | 22.29857 | 113.89944 | 43 ft | 10 kts | 243° |
| 2026-05-05 08:36 | 22.29826 | 113.89860 | 43 ft | 14 kts | 249° |
| 2026-05-05 08:36 | 22.29778 | 113.89772 | 43 ft | 8 kts | 207° |
| 2026-05-05 08:36 | 22.29775 | 113.89771 | 43 ft | 0 kts | 200° |
| 2026-05-05 08:36 | 22.29773 | 113.89770 | 43 ft | 1 kts | 198° |
| 2026-05-05 08:37 | 22.29751 | 113.89769 | 43 ft | 5 kts | 177° |
| 2026-05-05 08:37 | 22.29697 | 113.89784 | 43 ft | 11 kts | 165° |
| 2026-05-05 08:37 | 22.29626 | 113.89830 | 44 ft | 9 kts | 121° |
| 2026-05-05 08:37 | 22.29636 | 113.89879 | 43 ft | 11 kts | 69° |
| 2026-05-05 08:38 | 22.29654 | 113.89930 | 43 ft | 27 kts | 69° |
| 2026-05-05 08:38 | 22.29796 | 113.90364 | 41 ft | 98 kts | 70° |
| 2026-05-05 08:38 | 22.30100 | 113.91277 | 44 ft | 159 kts | 70° |
| 2026-05-05 08:38 | 22.30511 | 113.92528 | 430 ft | 182 kts | 70° |
| 2026-05-05 08:39 | 22.30924 | 113.93790 | 1398 ft | 177 kts | 71° |
| 2026-05-05 08:39 | 22.31351 | 113.95097 | 1917 ft | 194 kts | 72° |
| 2026-05-05 08:39 | 22.31801 | 113.96523 | 2302 ft | 206 kts | 73° |
| 2026-05-05 08:39 | 22.32271 | 113.98010 | 2785 ft | 213 kts | 72° |
| 2026-05-05 08:40 | 22.32755 | 113.99532 | 3341 ft | 217 kts | 73° |
| 2026-05-05 08:40 | 22.33253 | 114.01095 | 3831 ft | 224 kts | 72° |
| 2026-05-05 08:40 | 22.33713 | 114.02720 | 4337 ft | 229 kts | 80° |
| 2026-05-05 08:40 | 22.33773 | 114.04444 | 4939 ft | 232 kts | 101° |
| 2026-05-05 08:41 | 22.33252 | 114.06084 | 5680 ft | 231 kts | 122° |
| 2026-05-05 08:41 | 22.32231 | 114.07414 | 6423 ft | 232 kts | 142° |
| 2026-05-05 08:41 | 22.30825 | 114.08354 | 6952 ft | 244 kts | 160° |
| 2026-05-05 08:41 | 22.29155 | 114.08786 | 7548 ft | 251 kts | 178° |
| 2026-05-05 08:42 | 22.27373 | 114.08829 | 7919 ft | 265 kts | 184° |
| 2026-05-05 08:42 | 22.25481 | 114.08775 | 7982 ft | 277 kts | 184° |
| 2026-05-05 08:42 | 22.23576 | 114.08723 | 7969 ft | 278 kts | 184° |
| 2026-05-05 08:42 | 22.21714 | 114.08686 | 7972 ft | 278 kts | 184° |
| 2026-05-05 08:43 | 22.19778 | 114.08711 | 7960 ft | 280 kts | 178° |
| 2026-05-05 08:43 | 22.17909 | 114.09316 | 7952 ft | 286 kts | 153° |
| 2026-05-05 08:43 | 22.16455 | 114.10794 | 7966 ft | 294 kts | 125° |
| 2026-05-05 08:43 | 22.15774 | 114.12873 | 7981 ft | 299 kts | 100° |
| 2026-05-05 08:44 | 22.15601 | 114.15119 | 7990 ft | 301 kts | 97° |
| 2026-05-05 08:44 | 22.15477 | 114.17373 | 7953 ft | 298 kts | 93° |
| 2026-05-05 08:44 | 22.15401 | 114.19590 | 7958 ft | 296 kts | 94° |
| 2026-05-05 08:44 | 22.15283 | 114.21830 | 7960 ft | 300 kts | 95° |
| 2026-05-05 08:45 | 22.15143 | 114.24077 | 7962 ft | 301 kts | 94° |
| 2026-05-05 08:45 | 22.15292 | 114.26325 | 7966 ft | 302 kts | 81° |
| 2026-05-05 08:45 | 22.15739 | 114.28544 | 7974 ft | 303 kts | 78° |
| 2026-05-05 08:45 | 22.16221 | 114.30743 | 7962 ft | 301 kts | 77° |
| 2026-05-05 08:46 | 22.16707 | 114.32947 | 7970 ft | 302 kts | 77° |
| 2026-05-05 08:46 | 22.17187 | 114.35147 | 7967 ft | 301 kts | 78° |
| 2026-05-05 08:46 | 22.17664 | 114.37345 | 7969 ft | 301 kts | 78° |
| 2026-05-05 08:46 | 22.18207 | 114.39529 | 7963 ft | 302 kts | 70° |
| 2026-05-05 08:47 | 22.19338 | 114.41427 | 7971 ft | 302 kts | 42° |
| 2026-05-05 08:47 | 22.21118 | 114.42547 | 8030 ft | 297 kts | 14° |
| 2026-05-05 08:47 | 22.23163 | 114.42685 | 8436 ft | 295 kts | 350° |
| 2026-05-05 08:47 | 22.25187 | 114.42332 | 9344 ft | 295 kts | 346° |
| 2026-05-05 08:48 | 22.27202 | 114.41934 | 10282 ft | 297 kts | 346° |
| 2026-05-05 08:48 | 22.29299 | 114.41518 | 10753 ft | 316 kts | 346° |
| 2026-05-05 08:48 | 22.31531 | 114.41082 | 11134 ft | 336 kts | 346° |
| 2026-05-05 08:48 | 22.33897 | 114.40626 | 11509 ft | 354 kts | 346° |
| 2026-05-05 08:49 | 22.36344 | 114.40082 | 12021 ft | 363 kts | 340° |
| 2026-05-05 08:49 | 22.38665 | 114.39025 | 12648 ft | 363 kts | 326° |
| 2026-05-05 08:49 | 22.40607 | 114.37304 | 13316 ft | 360 kts | 307° |
| 2026-05-05 08:49 | 22.42026 | 114.35131 | 13989 ft | 359 kts | 298° |
| 2026-05-05 08:50 | 22.43321 | 114.32814 | 14707 ft | 361 kts | 298° |
| 2026-05-05 08:50 | 22.44617 | 114.30492 | 15492 ft | 361 kts | 298° |
| 2026-05-05 08:50 | 22.45924 | 114.28157 | 16099 ft | 365 kts | 298° |
| 2026-05-05 08:50 | 22.47254 | 114.25812 | 16750 ft | 367 kts | 298° |
| 2026-05-05 08:51 | 22.48597 | 114.23452 | 17352 ft | 370 kts | 298° |
| 2026-05-05 08:51 | 22.49946 | 114.21073 | 17972 ft | 371 kts | 298° |
| 2026-05-05 08:51 | 22.51292 | 114.18700 | 18510 ft | 373 kts | 298° |
| 2026-05-05 08:51 | 22.52712 | 114.16316 | 19001 ft | 378 kts | 302° |
| 2026-05-05 08:52 | 22.54436 | 114.14128 | 19476 ft | 386 kts | 311° |
| 2026-05-05 08:52 | 22.56546 | 114.12293 | 19997 ft | 394 kts | 321° |
| 2026-05-05 08:52 | 22.58913 | 114.10753 | 20521 ft | 400 kts | 327° |
| 2026-05-05 08:52 | 22.60598 | 114.09822 | 20885 ft | 403 kts | 329° |
| 2026-05-05 08:53 | 22.63984 | 114.08133 | 21570 ft | 407 kts | 331° |
| 2026-05-05 08:53 | 22.66580 | 114.06888 | 22113 ft | 410 kts | 331° |
| 2026-05-05 08:53 | 22.69192 | 114.05623 | 22665 ft | 411 kts | 330° |
| 2026-05-05 08:53 | 22.71802 | 114.04333 | 23186 ft | 414 kts | 330° |
| 2026-05-05 08:54 | 22.73528 | 114.03465 | 23529 ft | 415 kts | 330° |
| 2026-05-05 08:54 | 22.76162 | 114.02125 | 23978 ft | 418 kts | 330° |
| 2026-05-05 08:54 | 22.78786 | 114.00777 | 24405 ft | 420 kts | 329° |
| 2026-05-05 08:54 | 22.79791 | 114.00259 | 24605 ft | 421 kts | 329° |
| 2026-05-05 08:55 | 22.81593 | 113.99329 | 24970 ft | 422 kts | 329° |
| 2026-05-05 08:55 | 22.84235 | 113.97963 | 25504 ft | 424 kts | 329° |
| 2026-05-05 08:55 | 22.86903 | 113.96584 | 26038 ft | 426 kts | 329° |
| 2026-05-05 08:56 | 22.89571 | 113.95205 | 26534 ft | 429 kts | 329° |
| 2026-05-05 08:56 | 22.92279 | 113.93810 | 27064 ft | 431 kts | 329° |
| 2026-05-05 08:56 | 22.94981 | 113.92407 | 27606 ft | 434 kts | 328° |
| 2026-05-05 08:56 | 22.97710 | 113.90984 | 28140 ft | 436 kts | 328° |
| 2026-05-05 08:57 | 23.00449 | 113.89553 | 28652 ft | 438 kts | 328° |
| 2026-05-05 08:57 | 23.03205 | 113.88114 | 29146 ft | 441 kts | 328° |
| 2026-05-05 08:57 | 23.05964 | 113.86673 | 29618 ft | 444 kts | 328° |
| 2026-05-05 08:57 | 23.08776 | 113.85255 | 30088 ft | 449 kts | 331° |
| 2026-05-05 08:58 | 23.11701 | 113.84014 | 30468 ft | 453 kts | 332° |
| 2026-05-05 08:58 | 23.14667 | 113.82811 | 30848 ft | 456 kts | 333° |
| 2026-05-05 08:58 | 23.17652 | 113.81631 | 31226 ft | 459 kts | 333° |
| 2026-05-05 08:58 | 23.20667 | 113.80452 | 31572 ft | 461 kts | 333° |
| 2026-05-05 08:59 | 23.23689 | 113.79274 | 31915 ft | 463 kts | 333° |
| 2026-05-05 08:59 | 23.26731 | 113.78086 | 32251 ft | 465 kts | 333° |
| 2026-05-05 08:59 | 23.29778 | 113.76892 | 32581 ft | 467 kts | 333° |
| 2026-05-05 08:59 | 23.32846 | 113.75687 | 32915 ft | 469 kts | 333° |
| 2026-05-05 09:00 | 23.35900 | 113.74487 | 33362 ft | 466 kts | 333° |
| 2026-05-05 09:00 | 23.38945 | 113.73291 | 33964 ft | 463 kts | 333° |
| 2026-05-05 09:00 | 23.41970 | 113.72100 | 34308 ft | 462 kts | 333° |
| 2026-05-05 09:00 | 23.44995 | 113.70905 | 34627 ft | 462 kts | 333° |
| 2026-05-05 09:01 | 23.48016 | 113.69711 | 34947 ft | 462 kts | 333° |
| 2026-05-05 09:01 | 23.51044 | 113.68513 | 35238 ft | 463 kts | 333° |
| 2026-05-05 09:01 | 23.54067 | 113.67317 | 35575 ft | 462 kts | 333° |
| 2026-05-05 09:01 | 23.57084 | 113.66124 | 35904 ft | 461 kts | 333° |
| 2026-05-05 09:02 | 23.60097 | 113.64932 | 36225 ft | 460 kts | 333° |
| 2026-05-05 09:02 | 23.63106 | 113.63742 | 36527 ft | 460 kts | 333° |
| 2026-05-05 09:02 | 23.66118 | 113.62550 | 36805 ft | 460 kts | 333° |
| 2026-05-05 09:02 | 23.69118 | 113.61361 | 37115 ft | 459 kts | 333° |
| 2026-05-05 09:03 | 23.72122 | 113.60169 | 37412 ft | 458 kts | 333° |
| 2026-05-05 09:03 | 23.75117 | 113.58981 | 37774 ft | 457 kts | 333° |
| 2026-05-05 09:03 | 23.78092 | 113.57802 | 38199 ft | 453 kts | 333° |
| 2026-05-05 09:03 | 23.81050 | 113.56630 | 38522 ft | 452 kts | 333° |
| 2026-05-05 09:04 | 23.84006 | 113.55455 | 38750 ft | 452 kts | 333° |
| 2026-05-05 09:04 | 23.86959 | 113.54280 | 38966 ft | 452 kts | 333° |
| 2026-05-05 09:04 | 23.89915 | 113.53104 | 39189 ft | 451 kts | 333° |
| 2026-05-05 09:04 | 23.92858 | 113.51933 | 39418 ft | 450 kts | 333° |
| 2026-05-05 09:05 | 23.95797 | 113.50764 | 39658 ft | 449 kts | 333° |
| 2026-05-05 09:05 | 23.98727 | 113.49597 | 39858 ft | 448 kts | 333° |
| 2026-05-05 09:05 | 24.01655 | 113.48431 | 40071 ft | 447 kts | 333° |
| 2026-05-05 09:05 | 24.04580 | 113.47265 | 40286 ft | 447 kts | 333° |
| 2026-05-05 09:06 | 24.07496 | 113.46102 | 40510 ft | 446 kts | 333° |
| 2026-05-05 09:06 | 24.10412 | 113.44939 | 40723 ft | 445 kts | 333° |
| 2026-05-05 09:06 | 24.13313 | 113.43781 | 40883 ft | 444 kts | 333° |
| 2026-05-05 09:06 | 24.16248 | 113.42697 | 41028 ft | 448 kts | 337° |
| 2026-05-05 09:07 | 24.19317 | 113.41951 | 41070 ft | 455 kts | 344° |
| 2026-05-05 09:07 | 24.25700 | 113.41650 | 41071 ft | 464 kts | 353° |
| 2026-05-05 09:08 | 24.32222 | 113.41849 | 41067 ft | 472 kts | 354° |
| 2026-05-05 09:08 | 24.38813 | 113.42120 | 41059 ft | 476 kts | 354° |
| 2026-05-05 09:09 | 24.45405 | 113.42330 | 41056 ft | 477 kts | 354° |
| 2026-05-05 09:09 | 24.52042 | 113.42514 | 41053 ft | 477 kts | 354° |
| 2026-05-05 09:10 | 24.58669 | 113.42694 | 41051 ft | 476 kts | 354° |
| 2026-05-05 09:10 | 24.65283 | 113.42880 | 41073 ft | 477 kts | 354° |
| 2026-05-05 09:11 | 24.71933 | 113.43066 | 41042 ft | 479 kts | 353° |
| 2026-05-05 09:11 | 24.78592 | 113.43253 | 41040 ft | 479 kts | 354° |
| 2026-05-05 09:12 | 24.85246 | 113.43443 | 41032 ft | 480 kts | 354° |
| 2026-05-05 09:12 | 24.91917 | 113.43634 | 41034 ft | 480 kts | 354° |
| 2026-05-05 09:13 | 24.98593 | 113.43825 | 41035 ft | 479 kts | 354° |
| 2026-05-05 09:13 | 25.05251 | 113.44016 | 41034 ft | 478 kts | 353° |
| 2026-05-05 09:14 | 25.11907 | 113.44206 | 41033 ft | 478 kts | 353° |
| 2026-05-05 09:14 | 25.18550 | 113.44396 | 41035 ft | 478 kts | 353° |
| 2026-05-05 09:15 | 25.25166 | 113.44584 | 41039 ft | 479 kts | 353° |
| 2026-05-05 09:15 | 25.31874 | 113.44765 | 41035 ft | 479 kts | 353° |
| 2026-05-05 09:16 | 25.38493 | 113.44951 | 41037 ft | 479 kts | 354° |
| 2026-05-05 09:16 | 25.45154 | 113.45150 | 41029 ft | 479 kts | 353° |
| 2026-05-05 09:17 | 25.51814 | 113.45351 | 41046 ft | 479 kts | 354° |
| 2026-05-05 09:17 | 25.58476 | 113.45546 | 41031 ft | 479 kts | 354° |
| 2026-05-05 09:18 | 25.65138 | 113.45733 | 41030 ft | 479 kts | 354° |
| 2026-05-05 09:18 | 25.71798 | 113.45923 | 41026 ft | 479 kts | 354° |
| 2026-05-05 09:19 | 25.78454 | 113.46118 | 41019 ft | 478 kts | 354° |
| 2026-05-05 09:19 | 25.85112 | 113.46314 | 41009 ft | 478 kts | 354° |
| 2026-05-05 09:20 | 25.91696 | 113.46372 | 41014 ft | 474 kts | 351° |
| 2026-05-05 09:20 | 25.98269 | 113.46053 | 41009 ft | 472 kts | 349° |
| 2026-05-05 09:21 | 26.04835 | 113.45707 | 41010 ft | 472 kts | 350° |
| 2026-05-05 09:21 | 26.11410 | 113.45417 | 41016 ft | 473 kts | 350° |
| 2026-05-05 09:22 | 26.18001 | 113.45161 | 41009 ft | 474 kts | 351° |
| 2026-05-05 09:22 | 26.24592 | 113.44915 | 41009 ft | 474 kts | 351° |
| 2026-05-05 09:23 | 26.31142 | 113.44667 | 41003 ft | 474 kts | 351° |
| 2026-05-05 09:23 | 26.37732 | 113.44415 | 41002 ft | 474 kts | 351° |
| 2026-05-05 09:24 | 26.44322 | 113.44162 | 41003 ft | 474 kts | 351° |
| 2026-05-05 09:24 | 26.50912 | 113.43909 | 41003 ft | 474 kts | 351° |
| 2026-05-05 09:25 | 26.56435 | 113.43704 | 40998 ft | 474 kts | 351° |